sensor_id;sensor_type;location;lat;lon;timestamp;P1;durP1;ratioP1;P2;durP2;ratioP2
9854;SDS011;4966;48.112;9.282;2024-02-14T00:00:06;2.13;;;1.08;;
9854;SDS011;4966;48.112;9.282;2024-02-14T00:02:39;4.20;;;1.13;;
9854;SDS011;4966;48.112;9.282;2024-02-14T00:05:10;2.35;;;1.00;;
9854;SDS011;4966;48.112;9.282;2024-02-14T00:07:36;3.55;;;1.10;;
9854;SDS011;4966;48.112;9.282;2024-02-14T00:10:02;2.40;;;1.15;;
9854;SDS011;4966;48.112;9.282;2024-02-14T00:12:30;3.50;;;1.23;;
9854;SDS011;4966;48.112;9.282;2024-02-14T00:14:56;3.50;;;1.23;;
9854;SDS011;4966;48.112;9.282;2024-02-14T00:17:22;2.92;;;1.40;;
9854;SDS011;4966;48.112;9.282;2024-02-14T00:19:48;3.47;;;1.45;;
9854;SDS011;4966;48.112;9.282;2024-02-14T00:22:13;3.10;;;1.52;;
9854;SDS011;4966;48.112;9.282;2024-02-14T00:24:39;4.35;;;1.85;;
9854;SDS011;4966;48.112;9.282;2024-02-14T00:27:04;3.90;;;1.73;;
9854;SDS011;4966;48.112;9.282;2024-02-14T00:29:29;2.55;;;1.20;;
9854;SDS011;4966;48.112;9.282;2024-02-14T00:31:55;5.10;;;1.70;;
9854;SDS011;4966;48.112;9.282;2024-02-14T00:34:20;3.55;;;1.80;;
9854;SDS011;4966;48.112;9.282;2024-02-14T00:36:46;3.83;;;1.20;;
9854;SDS011;4966;48.112;9.282;2024-02-14T00:39:11;4.03;;;1.20;;
9854;SDS011;4966;48.112;9.282;2024-02-14T00:41:37;2.67;;;1.20;;
9854;SDS011;4966;48.112;9.282;2024-02-14T00:44:02;2.60;;;1.30;;
9854;SDS011;4966;48.112;9.282;2024-02-14T00:46:30;2.47;;;1.10;;
9854;SDS011;4966;48.112;9.282;2024-02-14T00:48:56;3.15;;;1.38;;
9854;SDS011;4966;48.112;9.282;2024-02-14T00:51:21;3.85;;;1.30;;
9854;SDS011;4966;48.112;9.282;2024-02-14T00:53:47;3.45;;;1.10;;
9854;SDS011;4966;48.112;9.282;2024-02-14T00:56:12;4.05;;;1.40;;
9854;SDS011;4966;48.112;9.282;2024-02-14T00:58:37;3.08;;;1.40;;
9854;SDS011;4966;48.112;9.282;2024-02-14T01:01:04;4.13;;;1.77;;
9854;SDS011;4966;48.112;9.282;2024-02-14T01:03:29;2.75;;;1.50;;
9854;SDS011;4966;48.112;9.282;2024-02-14T01:05:54;3.08;;;1.40;;
9854;SDS011;4966;48.112;9.282;2024-02-14T01:08:20;4.10;;;1.80;;
9854;SDS011;4966;48.112;9.282;2024-02-14T01:10:45;4.07;;;1.83;;
9854;SDS011;4966;48.112;9.282;2024-02-14T01:13:11;4.03;;;1.38;;
9854;SDS011;4966;48.112;9.282;2024-02-14T01:15:37;4.18;;;1.77;;
9854;SDS011;4966;48.112;9.282;2024-02-14T01:18:02;4.03;;;1.77;;
9854;SDS011;4966;48.112;9.282;2024-02-14T01:20:28;4.38;;;2.15;;
9854;SDS011;4966;48.112;9.282;2024-02-14T01:22:53;4.65;;;1.70;;
9854;SDS011;4966;48.112;9.282;2024-02-14T01:25:18;6.45;;;1.73;;
9854;SDS011;4966;48.112;9.282;2024-02-14T01:27:44;3.42;;;1.30;;
9854;SDS011;4966;48.112;9.282;2024-02-14T01:30:09;3.70;;;1.50;;
9854;SDS011;4966;48.112;9.282;2024-02-14T01:32:35;5.28;;;1.80;;
9854;SDS011;4966;48.112;9.282;2024-02-14T01:35:00;3.40;;;1.92;;
9854;SDS011;4966;48.112;9.282;2024-02-14T01:37:26;3.70;;;1.58;;
9854;SDS011;4966;48.112;9.282;2024-02-14T01:39:52;2.97;;;1.40;;
9854;SDS011;4966;48.112;9.282;2024-02-14T01:42:17;4.07;;;1.60;;
9854;SDS011;4966;48.112;9.282;2024-02-14T01:44:42;3.42;;;1.77;;
9854;SDS011;4966;48.112;9.282;2024-02-14T01:47:08;4.50;;;1.95;;
9854;SDS011;4966;48.112;9.282;2024-02-14T01:49:35;6.88;;;2.55;;
9854;SDS011;4966;48.112;9.282;2024-02-14T01:52:01;5.65;;;2.10;;
9854;SDS011;4966;48.112;9.282;2024-02-14T01:54:29;5.43;;;2.47;;
9854;SDS011;4966;48.112;9.282;2024-02-14T01:56:55;4.68;;;2.05;;
9854;SDS011;4966;48.112;9.282;2024-02-14T01:59:21;6.10;;;2.78;;
9854;SDS011;4966;48.112;9.282;2024-02-14T02:01:48;7.00;;;2.35;;
9854;SDS011;4966;48.112;9.282;2024-02-14T02:04:14;4.85;;;1.85;;
9854;SDS011;4966;48.112;9.282;2024-02-14T02:06:39;4.80;;;2.30;;
9854;SDS011;4966;48.112;9.282;2024-02-14T02:09:06;3.78;;;1.83;;
9854;SDS011;4966;48.112;9.282;2024-02-14T02:11:42;3.88;;;2.08;;
9854;SDS011;4966;48.112;9.282;2024-02-14T02:14:10;4.18;;;2.28;;
9854;SDS011;4966;48.112;9.282;2024-02-14T02:16:37;5.50;;;2.38;;
9854;SDS011;4966;48.112;9.282;2024-02-14T02:19:03;5.50;;;1.95;;
9854;SDS011;4966;48.112;9.282;2024-02-14T02:21:28;7.13;;;2.25;;
9854;SDS011;4966;48.112;9.282;2024-02-14T02:23:54;5.38;;;2.00;;
9854;SDS011;4966;48.112;9.282;2024-02-14T02:26:20;7.22;;;2.65;;
9854;SDS011;4966;48.112;9.282;2024-02-14T02:28:45;4.82;;;1.95;;
9854;SDS011;4966;48.112;9.282;2024-02-14T02:31:11;8.20;;;2.20;;
9854;SDS011;4966;48.112;9.282;2024-02-14T02:33:36;4.80;;;2.00;;
9854;SDS011;4966;48.112;9.282;2024-02-14T02:36:01;9.10;;;2.03;;
9854;SDS011;4966;48.112;9.282;2024-02-14T02:38:27;4.65;;;2.03;;
9854;SDS011;4966;48.112;9.282;2024-02-14T02:40:52;5.75;;;2.20;;
9854;SDS011;4966;48.112;9.282;2024-02-14T02:43:17;5.47;;;2.17;;
9854;SDS011;4966;48.112;9.282;2024-02-14T02:45:42;4.80;;;2.05;;
9854;SDS011;4966;48.112;9.282;2024-02-14T02:48:09;4.30;;;1.73;;
9854;SDS011;4966;48.112;9.282;2024-02-14T02:50:34;6.20;;;2.35;;
9854;SDS011;4966;48.112;9.282;2024-02-14T02:52:59;5.00;;;2.00;;
9854;SDS011;4966;48.112;9.282;2024-02-14T02:55:25;7.72;;;2.28;;
9854;SDS011;4966;48.112;9.282;2024-02-14T02:57:51;6.95;;;2.30;;
9854;SDS011;4966;48.112;9.282;2024-02-14T03:00:17;4.97;;;2.00;;
9854;SDS011;4966;48.112;9.282;2024-02-14T03:02:46;7.47;;;2.88;;
9854;SDS011;4966;48.112;9.282;2024-02-14T03:05:11;5.82;;;2.55;;
9854;SDS011;4966;48.112;9.282;2024-02-14T03:07:43;5.00;;;2.33;;
9854;SDS011;4966;48.112;9.282;2024-02-14T03:10:10;6.43;;;2.33;;
9854;SDS011;4966;48.112;9.282;2024-02-14T03:12:37;7.45;;;2.60;;
9854;SDS011;4966;48.112;9.282;2024-02-14T03:15:04;7.03;;;2.78;;
9854;SDS011;4966;48.112;9.282;2024-02-14T03:17:30;10.63;;;2.45;;
9854;SDS011;4966;48.112;9.282;2024-02-14T03:19:56;7.60;;;2.30;;
9854;SDS011;4966;48.112;9.282;2024-02-14T03:22:21;5.82;;;2.25;;
9854;SDS011;4966;48.112;9.282;2024-02-14T03:24:47;7.38;;;2.42;;
9854;SDS011;4966;48.112;9.282;2024-02-14T03:27:12;10.20;;;3.08;;
9854;SDS011;4966;48.112;9.282;2024-02-14T03:29:38;6.03;;;2.47;;
9854;SDS011;4966;48.112;9.282;2024-02-14T03:32:04;8.43;;;2.88;;
9854;SDS011;4966;48.112;9.282;2024-02-14T03:34:31;9.18;;;3.00;;
9854;SDS011;4966;48.112;9.282;2024-02-14T03:36:58;7.30;;;2.50;;
9854;SDS011;4966;48.112;9.282;2024-02-14T03:39:24;8.48;;;2.75;;
9854;SDS011;4966;48.112;9.282;2024-02-14T03:41:49;10.57;;;3.22;;
9854;SDS011;4966;48.112;9.282;2024-02-14T03:44:15;6.25;;;2.53;;
9854;SDS011;4966;48.112;9.282;2024-02-14T03:46:40;7.53;;;2.60;;
9854;SDS011;4966;48.112;9.282;2024-02-14T03:49:06;8.68;;;3.00;;
9854;SDS011;4966;48.112;9.282;2024-02-14T03:51:31;8.07;;;2.70;;
9854;SDS011;4966;48.112;9.282;2024-02-14T03:53:56;7.90;;;2.60;;
9854;SDS011;4966;48.112;9.282;2024-02-14T03:56:21;7.63;;;2.42;;
9854;SDS011;4966;48.112;9.282;2024-02-14T03:58:47;5.63;;;2.45;;
9854;SDS011;4966;48.112;9.282;2024-02-14T04:01:12;5.78;;;2.45;;
9854;SDS011;4966;48.112;9.282;2024-02-14T04:03:38;4.75;;;2.20;;
9854;SDS011;4966;48.112;9.282;2024-02-14T04:06:04;9.40;;;2.20;;
9854;SDS011;4966;48.112;9.282;2024-02-14T04:08:29;5.72;;;2.10;;
9854;SDS011;4966;48.112;9.282;2024-02-14T04:10:54;5.35;;;2.33;;
9854;SDS011;4966;48.112;9.282;2024-02-14T04:13:20;7.97;;;2.42;;
9854;SDS011;4966;48.112;9.282;2024-02-14T04:15:46;5.60;;;2.42;;
9854;SDS011;4966;48.112;9.282;2024-02-14T04:18:12;5.47;;;2.20;;
9854;SDS011;4966;48.112;9.282;2024-02-14T04:20:39;5.93;;;2.47;;
9854;SDS011;4966;48.112;9.282;2024-02-14T04:23:06;9.48;;;2.75;;
9854;SDS011;4966;48.112;9.282;2024-02-14T04:25:32;8.77;;;2.97;;
9854;SDS011;4966;48.112;9.282;2024-02-14T04:27:58;7.78;;;2.92;;
9854;SDS011;4966;48.112;9.282;2024-02-14T04:30:24;6.40;;;2.88;;
9854;SDS011;4966;48.112;9.282;2024-02-14T04:32:50;6.50;;;2.70;;
9854;SDS011;4966;48.112;9.282;2024-02-14T04:35:16;6.50;;;2.33;;
9854;SDS011;4966;48.112;9.282;2024-02-14T04:37:42;9.13;;;3.13;;
9854;SDS011;4966;48.112;9.282;2024-02-14T04:40:11;7.95;;;3.35;;
9854;SDS011;4966;48.112;9.282;2024-02-14T04:42:37;7.78;;;3.10;;
9854;SDS011;4966;48.112;9.282;2024-02-14T04:45:02;7.18;;;3.80;;
9854;SDS011;4966;48.112;9.282;2024-02-14T04:47:27;7.15;;;3.45;;
9854;SDS011;4966;48.112;9.282;2024-02-14T04:49:54;6.55;;;2.78;;
9854;SDS011;4966;48.112;9.282;2024-02-14T04:52:20;6.72;;;2.55;;
9854;SDS011;4966;48.112;9.282;2024-02-14T04:54:45;5.85;;;2.88;;
9854;SDS011;4966;48.112;9.282;2024-02-14T04:57:10;7.38;;;2.63;;
9854;SDS011;4966;48.112;9.282;2024-02-14T04:59:37;8.00;;;2.92;;
9854;SDS011;4966;48.112;9.282;2024-02-14T05:02:02;6.05;;;3.20;;
9854;SDS011;4966;48.112;9.282;2024-02-14T05:04:28;7.38;;;3.40;;
9854;SDS011;4966;48.112;9.282;2024-02-14T05:06:53;10.40;;;4.15;;
9854;SDS011;4966;48.112;9.282;2024-02-14T05:09:18;8.93;;;3.60;;
9854;SDS011;4966;48.112;9.282;2024-02-14T05:11:45;7.45;;;3.33;;
9854;SDS011;4966;48.112;9.282;2024-02-14T05:14:10;9.10;;;4.35;;
9854;SDS011;4966;48.112;9.282;2024-02-14T05:16:36;14.27;;;3.90;;
9854;SDS011;4966;48.112;9.282;2024-02-14T05:19:01;7.60;;;3.28;;
9854;SDS011;4966;48.112;9.282;2024-02-14T05:21:26;8.15;;;3.58;;
9854;SDS011;4966;48.112;9.282;2024-02-14T05:23:52;10.30;;;4.25;;
9854;SDS011;4966;48.112;9.282;2024-02-14T05:26:18;10.45;;;3.90;;
9854;SDS011;4966;48.112;9.282;2024-02-14T05:28:43;7.68;;;3.78;;
9854;SDS011;4966;48.112;9.282;2024-02-14T05:31:09;9.38;;;3.95;;
9854;SDS011;4966;48.112;9.282;2024-02-14T05:33:34;8.15;;;3.80;;
9854;SDS011;4966;48.112;9.282;2024-02-14T05:36:00;10.45;;;4.25;;
9854;SDS011;4966;48.112;9.282;2024-02-14T05:38:26;9.82;;;3.90;;
9854;SDS011;4966;48.112;9.282;2024-02-14T05:40:52;9.73;;;4.28;;
9854;SDS011;4966;48.112;9.282;2024-02-14T05:43:17;8.23;;;3.55;;
9854;SDS011;4966;48.112;9.282;2024-02-14T05:45:43;11.77;;;4.00;;
9854;SDS011;4966;48.112;9.282;2024-02-14T05:48:09;10.45;;;3.92;;
9854;SDS011;4966;48.112;9.282;2024-02-14T05:50:34;9.63;;;4.10;;
9854;SDS011;4966;48.112;9.282;2024-02-14T05:53:00;10.13;;;4.30;;
9854;SDS011;4966;48.112;9.282;2024-02-14T05:55:25;9.02;;;4.38;;
9854;SDS011;4966;48.112;9.282;2024-02-14T05:57:51;9.23;;;3.70;;
9854;SDS011;4966;48.112;9.282;2024-02-14T06:00:20;9.68;;;4.10;;
9854;SDS011;4966;48.112;9.282;2024-02-14T06:02:48;8.27;;;4.28;;
9854;SDS011;4966;48.112;9.282;2024-02-14T06:05:14;8.25;;;3.65;;
9854;SDS011;4966;48.112;9.282;2024-02-14T06:07:40;7.63;;;3.83;;
9854;SDS011;4966;48.112;9.282;2024-02-14T06:10:06;8.43;;;3.40;;
9854;SDS011;4966;48.112;9.282;2024-02-14T06:12:32;9.52;;;3.20;;
9854;SDS011;4966;48.112;9.282;2024-02-14T06:14:58;8.38;;;3.65;;
9854;SDS011;4966;48.112;9.282;2024-02-14T06:17:24;13.65;;;3.90;;
9854;SDS011;4966;48.112;9.282;2024-02-14T06:19:51;8.45;;;3.72;;
9854;SDS011;4966;48.112;9.282;2024-02-14T06:22:16;7.85;;;3.45;;
9854;SDS011;4966;48.112;9.282;2024-02-14T06:24:41;7.57;;;3.47;;
9854;SDS011;4966;48.112;9.282;2024-02-14T06:27:07;6.38;;;3.20;;
9854;SDS011;4966;48.112;9.282;2024-02-14T06:29:32;7.25;;;3.58;;
9854;SDS011;4966;48.112;9.282;2024-02-14T06:31:57;12.85;;;4.43;;
9854;SDS011;4966;48.112;9.282;2024-02-14T06:34:23;10.23;;;4.70;;
9854;SDS011;4966;48.112;9.282;2024-02-14T06:36:48;10.50;;;5.35;;
9854;SDS011;4966;48.112;9.282;2024-02-14T06:39:13;10.30;;;5.40;;
9854;SDS011;4966;48.112;9.282;2024-02-14T06:41:39;11.75;;;5.82;;
9854;SDS011;4966;48.112;9.282;2024-02-14T06:44:05;11.27;;;5.45;;
9854;SDS011;4966;48.112;9.282;2024-02-14T06:46:30;10.90;;;5.13;;
9854;SDS011;4966;48.112;9.282;2024-02-14T06:48:56;11.00;;;4.25;;
9854;SDS011;4966;48.112;9.282;2024-02-14T06:51:21;9.38;;;4.28;;
9854;SDS011;4966;48.112;9.282;2024-02-14T06:53:47;10.88;;;5.10;;
9854;SDS011;4966;48.112;9.282;2024-02-14T06:56:14;12.95;;;6.13;;
9854;SDS011;4966;48.112;9.282;2024-02-14T06:58:39;14.93;;;5.65;;
9854;SDS011;4966;48.112;9.282;2024-02-14T07:01:04;14.40;;;5.57;;
9854;SDS011;4966;48.112;9.282;2024-02-14T07:03:30;21.42;;;8.18;;
9854;SDS011;4966;48.112;9.282;2024-02-14T07:05:55;14.20;;;6.00;;
9854;SDS011;4966;48.112;9.282;2024-02-14T07:08:20;12.35;;;5.07;;
9854;SDS011;4966;48.112;9.282;2024-02-14T07:10:46;8.70;;;3.97;;
9854;SDS011;4966;48.112;9.282;2024-02-14T07:13:11;8.25;;;3.72;;
9854;SDS011;4966;48.112;9.282;2024-02-14T07:15:36;7.15;;;3.28;;
9854;SDS011;4966;48.112;9.282;2024-02-14T07:18:02;10.30;;;3.25;;
9854;SDS011;4966;48.112;9.282;2024-02-14T07:20:28;9.35;;;3.95;;
9854;SDS011;4966;48.112;9.282;2024-02-14T07:22:55;11.02;;;4.38;;
9854;SDS011;4966;48.112;9.282;2024-02-14T07:25:21;10.13;;;4.40;;
9854;SDS011;4966;48.112;9.282;2024-02-14T07:27:47;9.95;;;4.22;;
9854;SDS011;4966;48.112;9.282;2024-02-14T07:30:14;12.35;;;4.40;;
9854;SDS011;4966;48.112;9.282;2024-02-14T07:32:43;9.13;;;4.40;;
9854;SDS011;4966;48.112;9.282;2024-02-14T07:35:09;11.13;;;4.63;;
9854;SDS011;4966;48.112;9.282;2024-02-14T07:37:34;11.70;;;4.45;;
9854;SDS011;4966;48.112;9.282;2024-02-14T07:40:00;10.38;;;4.15;;
9854;SDS011;4966;48.112;9.282;2024-02-14T07:42:25;8.00;;;3.95;;
9854;SDS011;4966;48.112;9.282;2024-02-14T07:44:50;8.55;;;3.83;;
9854;SDS011;4966;48.112;9.282;2024-02-14T07:47:15;10.13;;;4.10;;
9854;SDS011;4966;48.112;9.282;2024-02-14T07:49:41;10.95;;;4.43;;
9854;SDS011;4966;48.112;9.282;2024-02-14T07:52:06;8.60;;;4.43;;
9854;SDS011;4966;48.112;9.282;2024-02-14T07:54:31;9.18;;;4.47;;
9854;SDS011;4966;48.112;9.282;2024-02-14T07:56:57;10.43;;;4.90;;
9854;SDS011;4966;48.112;9.282;2024-02-14T07:59:22;7.53;;;3.42;;
9854;SDS011;4966;48.112;9.282;2024-02-14T08:01:48;11.40;;;2.85;;
9854;SDS011;4966;48.112;9.282;2024-02-14T08:04:13;5.90;;;2.85;;
9854;SDS011;4966;48.112;9.282;2024-02-14T08:06:38;8.45;;;2.80;;
9854;SDS011;4966;48.112;9.282;2024-02-14T08:09:04;11.05;;;2.92;;
9854;SDS011;4966;48.112;9.282;2024-02-14T08:11:31;6.78;;;2.90;;
9854;SDS011;4966;48.112;9.282;2024-02-14T08:13:57;8.30;;;2.67;;
9854;SDS011;4966;48.112;9.282;2024-02-14T08:16:23;5.68;;;2.55;;
9854;SDS011;4966;48.112;9.282;2024-02-14T08:18:49;7.43;;;2.92;;
9854;SDS011;4966;48.112;9.282;2024-02-14T08:21:15;5.38;;;2.40;;
9854;SDS011;4966;48.112;9.282;2024-02-14T08:23:41;5.20;;;2.33;;
9854;SDS011;4966;48.112;9.282;2024-02-14T08:26:07;5.90;;;2.50;;
9854;SDS011;4966;48.112;9.282;2024-02-14T08:28:35;5.15;;;2.30;;
9854;SDS011;4966;48.112;9.282;2024-02-14T08:31:01;8.48;;;3.03;;
9854;SDS011;4966;48.112;9.282;2024-02-14T08:33:27;6.63;;;2.95;;
9854;SDS011;4966;48.112;9.282;2024-02-14T08:35:52;12.75;;;3.85;;
9854;SDS011;4966;48.112;9.282;2024-02-14T08:38:22;8.35;;;3.05;;
9854;SDS011;4966;48.112;9.282;2024-02-14T08:40:47;5.68;;;2.47;;
9854;SDS011;4966;48.112;9.282;2024-02-14T08:43:12;6.22;;;2.60;;
9854;SDS011;4966;48.112;9.282;2024-02-14T08:45:38;6.85;;;3.40;;
9854;SDS011;4966;48.112;9.282;2024-02-14T08:48:03;8.07;;;3.55;;
9854;SDS011;4966;48.112;9.282;2024-02-14T08:50:29;6.85;;;2.78;;
9854;SDS011;4966;48.112;9.282;2024-02-14T08:52:55;14.30;;;4.43;;
9854;SDS011;4966;48.112;9.282;2024-02-14T08:55:21;12.95;;;4.22;;
9854;SDS011;4966;48.112;9.282;2024-02-14T08:57:46;7.30;;;2.53;;
9854;SDS011;4966;48.112;9.282;2024-02-14T09:00:12;4.88;;;2.58;;
9854;SDS011;4966;48.112;9.282;2024-02-14T09:02:40;8.35;;;2.50;;
9854;SDS011;4966;48.112;9.282;2024-02-14T09:05:06;5.20;;;2.22;;
9854;SDS011;4966;48.112;9.282;2024-02-14T09:07:31;4.55;;;2.40;;
9854;SDS011;4966;48.112;9.282;2024-02-14T09:09:58;6.93;;;2.38;;
9854;SDS011;4966;48.112;9.282;2024-02-14T09:12:24;4.05;;;2.10;;
9854;SDS011;4966;48.112;9.282;2024-02-14T09:14:49;7.45;;;2.50;;
9854;SDS011;4966;48.112;9.282;2024-02-14T09:17:15;6.05;;;2.40;;
9854;SDS011;4966;48.112;9.282;2024-02-14T09:19:40;5.25;;;2.45;;
9854;SDS011;4966;48.112;9.282;2024-02-14T09:22:05;7.15;;;2.83;;
9854;SDS011;4966;48.112;9.282;2024-02-14T09:24:31;5.93;;;1.67;;
9854;SDS011;4966;48.112;9.282;2024-02-14T09:26:57;6.35;;;3.70;;
9854;SDS011;4966;48.112;9.282;2024-02-14T09:29:23;5.13;;;2.97;;
9854;SDS011;4966;48.112;9.282;2024-02-14T09:31:49;5.47;;;2.17;;
9854;SDS011;4966;48.112;9.282;2024-02-14T09:34:16;7.90;;;4.28;;
9854;SDS011;4966;48.112;9.282;2024-02-14T09:36:44;7.28;;;3.00;;
9854;SDS011;4966;48.112;9.282;2024-02-14T09:39:09;5.80;;;2.60;;
9854;SDS011;4966;48.112;9.282;2024-02-14T09:41:40;6.25;;;2.30;;
9854;SDS011;4966;48.112;9.282;2024-02-14T09:44:08;7.00;;;2.65;;
9854;SDS011;4966;48.112;9.282;2024-02-14T09:46:35;6.10;;;2.90;;
9854;SDS011;4966;48.112;9.282;2024-02-14T09:49:01;6.60;;;2.00;;
9854;SDS011;4966;48.112;9.282;2024-02-14T09:51:29;5.45;;;2.08;;
9854;SDS011;4966;48.112;9.282;2024-02-14T09:53:54;5.40;;;1.70;;
9854;SDS011;4966;48.112;9.282;2024-02-14T09:56:21;7.35;;;2.30;;
9854;SDS011;4966;48.112;9.282;2024-02-14T09:58:49;4.68;;;2.08;;
9854;SDS011;4966;48.112;9.282;2024-02-14T10:01:24;5.30;;;1.70;;
9854;SDS011;4966;48.112;9.282;2024-02-14T10:03:50;3.95;;;1.80;;
9854;SDS011;4966;48.112;9.282;2024-02-14T10:06:17;6.13;;;1.75;;
9854;SDS011;4966;48.112;9.282;2024-02-14T10:08:44;6.43;;;1.70;;
9854;SDS011;4966;48.112;9.282;2024-02-14T10:11:09;2.83;;;1.48;;
9854;SDS011;4966;48.112;9.282;2024-02-14T10:13:36;3.42;;;1.60;;
9854;SDS011;4966;48.112;9.282;2024-02-14T10:16:01;4.15;;;1.50;;
9854;SDS011;4966;48.112;9.282;2024-02-14T10:18:26;4.30;;;1.92;;
9854;SDS011;4966;48.112;9.282;2024-02-14T10:20:58;4.68;;;1.73;;
9854;SDS011;4966;48.112;9.282;2024-02-14T10:23:23;4.75;;;2.08;;
9854;SDS011;4966;48.112;9.282;2024-02-14T10:25:55;5.40;;;1.90;;
9854;SDS011;4966;48.112;9.282;2024-02-14T10:28:21;6.30;;;2.05;;
9854;SDS011;4966;48.112;9.282;2024-02-14T10:30:46;6.25;;;2.08;;
9854;SDS011;4966;48.112;9.282;2024-02-14T10:33:14;5.80;;;1.80;;
9854;SDS011;4966;48.112;9.282;2024-02-14T10:35:40;5.80;;;1.70;;
9854;SDS011;4966;48.112;9.282;2024-02-14T10:38:07;5.70;;;1.58;;
9854;SDS011;4966;48.112;9.282;2024-02-14T10:40:35;8.93;;;1.98;;
9854;SDS011;4966;48.112;9.282;2024-02-14T10:43:03;4.78;;;1.92;;
9854;SDS011;4966;48.112;9.282;2024-02-14T10:45:30;3.55;;;1.60;;
9854;SDS011;4966;48.112;9.282;2024-02-14T10:47:55;3.17;;;1.63;;
9854;SDS011;4966;48.112;9.282;2024-02-14T10:50:22;4.55;;;1.40;;
9854;SDS011;4966;48.112;9.282;2024-02-14T10:52:49;3.35;;;1.15;;
9854;SDS011;4966;48.112;9.282;2024-02-14T10:55:21;3.90;;;1.35;;
9854;SDS011;4966;48.112;9.282;2024-02-14T10:57:51;5.00;;;1.75;;
9854;SDS011;4966;48.112;9.282;2024-02-14T11:00:19;5.13;;;1.55;;
9854;SDS011;4966;48.112;9.282;2024-02-14T11:02:45;2.97;;;1.30;;
9854;SDS011;4966;48.112;9.282;2024-02-14T11:05:14;4.80;;;1.40;;
9854;SDS011;4966;48.112;9.282;2024-02-14T11:07:46;4.78;;;1.42;;
9854;SDS011;4966;48.112;9.282;2024-02-14T11:10:18;6.80;;;2.75;;
9854;SDS011;4966;48.112;9.282;2024-02-14T11:12:46;3.90;;;1.60;;
9854;SDS011;4966;48.112;9.282;2024-02-14T11:15:23;5.93;;;1.48;;
9854;SDS011;4966;48.112;9.282;2024-02-14T11:18:03;4.13;;;1.40;;
9854;SDS011;4966;48.112;9.282;2024-02-14T11:20:33;3.22;;;1.33;;
9854;SDS011;4966;48.112;9.282;2024-02-14T11:23:04;3.30;;;1.35;;
9854;SDS011;4966;48.112;9.282;2024-02-14T11:25:31;5.93;;;1.40;;
9854;SDS011;4966;48.112;9.282;2024-02-14T11:27:59;5.32;;;1.48;;
9854;SDS011;4966;48.112;9.282;2024-02-14T11:30:36;3.47;;;1.40;;
9854;SDS011;4966;48.112;9.282;2024-02-14T11:33:09;3.30;;;1.40;;
9854;SDS011;4966;48.112;9.282;2024-02-14T11:35:39;5.00;;;1.30;;
9854;SDS011;4966;48.112;9.282;2024-02-14T11:38:05;4.38;;;1.30;;
9854;SDS011;4966;48.112;9.282;2024-02-14T11:40:32;5.78;;;2.17;;
9854;SDS011;4966;48.112;9.282;2024-02-14T11:42:57;4.28;;;1.70;;
9854;SDS011;4966;48.112;9.282;2024-02-14T11:45:23;2.55;;;1.05;;
9854;SDS011;4966;48.112;9.282;2024-02-14T11:47:48;4.00;;;1.30;;
9854;SDS011;4966;48.112;9.282;2024-02-14T11:50:14;5.10;;;1.65;;
9854;SDS011;4966;48.112;9.282;2024-02-14T11:52:42;4.78;;;1.80;;
9854;SDS011;4966;48.112;9.282;2024-02-14T11:55:08;5.85;;;1.90;;
9854;SDS011;4966;48.112;9.282;2024-02-14T11:57:34;3.83;;;1.55;;
9854;SDS011;4966;48.112;9.282;2024-02-14T12:00:00;5.88;;;1.50;;
9854;SDS011;4966;48.112;9.282;2024-02-14T12:02:26;3.38;;;1.40;;
9854;SDS011;4966;48.112;9.282;2024-02-14T12:04:52;4.35;;;1.15;;
9854;SDS011;4966;48.112;9.282;2024-02-14T12:07:19;3.55;;;1.10;;
9854;SDS011;4966;48.112;9.282;2024-02-14T12:09:44;4.25;;;1.75;;
9854;SDS011;4966;48.112;9.282;2024-02-14T12:12:10;3.63;;;1.10;;
9854;SDS011;4966;48.112;9.282;2024-02-14T12:14:36;2.20;;;1.20;;
9854;SDS011;4966;48.112;9.282;2024-02-14T12:17:01;2.85;;;1.42;;
9854;SDS011;4966;48.112;9.282;2024-02-14T12:19:27;2.25;;;1.20;;
9854;SDS011;4966;48.112;9.282;2024-02-14T12:21:53;2.55;;;1.10;;
9854;SDS011;4966;48.112;9.282;2024-02-14T12:24:24;2.53;;;1.20;;
9854;SDS011;4966;48.112;9.282;2024-02-14T12:26:53;6.03;;;1.23;;
9854;SDS011;4966;48.112;9.282;2024-02-14T12:29:19;3.90;;;1.30;;
9854;SDS011;4966;48.112;9.282;2024-02-14T12:31:44;2.90;;;1.05;;
9854;SDS011;4966;48.112;9.282;2024-02-14T12:34:10;5.68;;;1.48;;
9854;SDS011;4966;48.112;9.282;2024-02-14T12:36:36;2.78;;;1.30;;
9854;SDS011;4966;48.112;9.282;2024-02-14T12:39:02;4.97;;;2.30;;
9854;SDS011;4966;48.112;9.282;2024-02-14T12:41:28;4.00;;;1.55;;
9854;SDS011;4966;48.112;9.282;2024-02-14T12:43:57;2.38;;;1.27;;
9854;SDS011;4966;48.112;9.282;2024-02-14T12:46:23;2.60;;;1.42;;
9854;SDS011;4966;48.112;9.282;2024-02-14T12:48:49;1.98;;;1.20;;
9854;SDS011;4966;48.112;9.282;2024-02-14T12:51:14;4.15;;;1.20;;
9854;SDS011;4966;48.112;9.282;2024-02-14T12:53:40;3.25;;;0.93;;
9854;SDS011;4966;48.112;9.282;2024-02-14T12:56:05;2.10;;;1.08;;
9854;SDS011;4966;48.112;9.282;2024-02-14T12:58:32;2.55;;;1.10;;
9854;SDS011;4966;48.112;9.282;2024-02-14T13:00:57;3.25;;;1.38;;
9854;SDS011;4966;48.112;9.282;2024-02-14T13:03:23;4.65;;;1.40;;
9854;SDS011;4966;48.112;9.282;2024-02-14T13:05:49;3.83;;;1.35;;
9854;SDS011;4966;48.112;9.282;2024-02-14T13:08:15;3.08;;;1.35;;
9854;SDS011;4966;48.112;9.282;2024-02-14T13:10:41;4.13;;;1.10;;
9854;SDS011;4966;48.112;9.282;2024-02-14T13:13:07;2.40;;;1.10;;
9854;SDS011;4966;48.112;9.282;2024-02-14T13:15:32;1.90;;;1.00;;
9854;SDS011;4966;48.112;9.282;2024-02-14T13:17:57;3.20;;;0.90;;
9854;SDS011;4966;48.112;9.282;2024-02-14T13:20:23;5.28;;;1.80;;
9854;SDS011;4966;48.112;9.282;2024-02-14T13:22:49;3.03;;;1.30;;
9854;SDS011;4966;48.112;9.282;2024-02-14T13:25:14;5.28;;;1.30;;
9854;SDS011;4966;48.112;9.282;2024-02-14T13:27:40;2.80;;;1.70;;
9854;SDS011;4966;48.112;9.282;2024-02-14T13:30:05;4.43;;;1.88;;
9854;SDS011;4966;48.112;9.282;2024-02-14T13:32:32;4.40;;;1.42;;
9854;SDS011;4966;48.112;9.282;2024-02-14T13:34:57;3.53;;;1.30;;
9854;SDS011;4966;48.112;9.282;2024-02-14T13:37:23;2.47;;;1.02;;
9854;SDS011;4966;48.112;9.282;2024-02-14T13:39:49;3.30;;;1.27;;
9854;SDS011;4966;48.112;9.282;2024-02-14T13:42:14;3.40;;;1.20;;
9854;SDS011;4966;48.112;9.282;2024-02-14T13:44:39;3.00;;;1.10;;
9854;SDS011;4966;48.112;9.282;2024-02-14T13:47:05;5.30;;;1.30;;
9854;SDS011;4966;48.112;9.282;2024-02-14T13:49:31;3.55;;;1.27;;
9854;SDS011;4966;48.112;9.282;2024-02-14T13:51:56;3.10;;;1.33;;
9854;SDS011;4966;48.112;9.282;2024-02-14T13:54:23;2.65;;;1.33;;
9854;SDS011;4966;48.112;9.282;2024-02-14T13:56:49;3.60;;;1.42;;
9854;SDS011;4966;48.112;9.282;2024-02-14T13:59:15;4.93;;;1.90;;
9854;SDS011;4966;48.112;9.282;2024-02-14T14:01:41;5.32;;;1.73;;
9854;SDS011;4966;48.112;9.282;2024-02-14T14:04:07;7.78;;;1.88;;
9854;SDS011;4966;48.112;9.282;2024-02-14T14:06:32;4.10;;;1.73;;
9854;SDS011;4966;48.112;9.282;2024-02-14T14:08:58;5.22;;;1.70;;
9854;SDS011;4966;48.112;9.282;2024-02-14T14:11:28;5.63;;;1.70;;
9854;SDS011;4966;48.112;9.282;2024-02-14T14:13:53;5.57;;;2.40;;
9854;SDS011;4966;48.112;9.282;2024-02-14T14:16:18;7.38;;;2.65;;
9854;SDS011;4966;48.112;9.282;2024-02-14T14:18:46;3.60;;;1.35;;
9854;SDS011;4966;48.112;9.282;2024-02-14T14:21:12;4.18;;;1.60;;
9854;SDS011;4966;48.112;9.282;2024-02-14T14:23:37;5.57;;;2.40;;
9854;SDS011;4966;48.112;9.282;2024-02-14T14:26:02;3.00;;;1.02;;
9854;SDS011;4966;48.112;9.282;2024-02-14T14:28:28;3.50;;;1.00;;
9854;SDS011;4966;48.112;9.282;2024-02-14T14:30:53;3.40;;;1.52;;
9854;SDS011;4966;48.112;9.282;2024-02-14T14:33:20;6.03;;;2.60;;
9854;SDS011;4966;48.112;9.282;2024-02-14T14:35:45;2.95;;;1.30;;
9854;SDS011;4966;48.112;9.282;2024-02-14T14:38:11;4.20;;;1.85;;
9854;SDS011;4966;48.112;9.282;2024-02-14T14:40:36;5.97;;;2.65;;
9854;SDS011;4966;48.112;9.282;2024-02-14T14:43:02;7.93;;;2.50;;
9854;SDS011;4966;48.112;9.282;2024-02-14T14:45:28;3.92;;;1.77;;
9854;SDS011;4966;48.112;9.282;2024-02-14T14:47:54;3.00;;;1.27;;
9854;SDS011;4966;48.112;9.282;2024-02-14T14:50:19;5.00;;;1.60;;
9854;SDS011;4966;48.112;9.282;2024-02-14T14:52:46;2.58;;;1.73;;
9854;SDS011;4966;48.112;9.282;2024-02-14T14:55:11;2.40;;;1.02;;
9854;SDS011;4966;48.112;9.282;2024-02-14T14:57:37;3.20;;;1.00;;
9854;SDS011;4966;48.112;9.282;2024-02-14T15:00:07;2.80;;;1.00;;
9854;SDS011;4966;48.112;9.282;2024-02-14T15:02:39;1.98;;;0.77;;
9854;SDS011;4966;48.112;9.282;2024-02-14T15:05:09;3.72;;;1.63;;
9854;SDS011;4966;48.112;9.282;2024-02-14T15:07:35;3.70;;;1.30;;